This is the latest recevied weather packets stored in our database for station/object OE-11343. If no packets are shown the sender has not sent any weather packets the latest 10 day(s).
| Time | Temp. | Humidity | Pressure | Rain* | Wind** | Luminosity | Snow |
|---|---|---|---|---|---|---|---|
| 1787836298 | 10.56° C | 75% | 719.6 hPa | - | - | 630 W/m² | - |
| 1787835924 | 10° C | 76% | 719.6 hPa | - | - | 570 W/m² | - |
| 1787835325 | 10° C | 76% | 719.6 hPa | - | - | 710 W/m² | - |
| 1787834498 | 10.56° C | 73% | 719.7 hPa | - | - | 640 W/m² | - |
| 1787834124 | 10.56° C | 73% | 719.7 hPa | - | - | 590 W/m² | - |
| 1787833525 | 10.56° C | 72% | 719.7 hPa | - | - | 670 W/m² | - |
| 1787832698 | 10.56° C | 69% | 719.8 hPa | - | - | 780 W/m² | - |
| 1787832325 | 10.56° C | 70% | 719.8 hPa | - | - | 860 W/m² | - |
| 1787831724 | 10° C | 69% | 719.8 hPa | - | - | 770 W/m² | - |
| 1787830898 | 10.56° C | 66% | 719.8 hPa | - | - | 870 W/m² | - |
| 1787830524 | 10° C | 66% | 719.7 hPa | - | - | 840 W/m² | - |
| 1787829924 | 10° C | 66% | 719.8 hPa | - | - | 860 W/m² | - |
| 1787829098 | 9.44° C | 69% | 719.8 hPa | - | - | 850 W/m² | - |
| 1787828725 | 10° C | 70% | 719.8 hPa | - | - | 840 W/m² | - |
| 1787828125 | 10° C | 69% | 719.8 hPa | - | - | 860 W/m² | - |
| 1787827297 | 10° C | 65% | 719.7 hPa | - | - | 850 W/m² | - |
| 1787826924 | 9.44° C | 68% | 719.7 hPa | - | - | 830 W/m² | - |
| 1787826325 | 10° C | 68% | 719.6 hPa | - | - | 840 W/m² | - |
| 1787825498 | 8.89° C | 68% | 719.4 hPa | - | - | 760 W/m² | - |
| 1787825125 | 9.44° C | 68% | 719.3 hPa | - | - | 700 W/m² | - |
| 1787824525 | 8.89° C | 69% | 719.3 hPa | - | - | 720 W/m² | - |
| 1787823698 | 9.44° C | 66% | 719.2 hPa | - | - | 550 W/m² | - |
| 1787823325 | 8.89° C | 69% | 719 hPa | - | - | 490 W/m² | - |
| 1787822724 | 8.89° C | 67% | 719 hPa | - | - | 430 W/m² | - |
| 1787821898 | 8.89° C | 66% | 719 hPa | - | - | 430 W/m² | - |
* Rain since midnight (hover to see other rain measurements)
** Current wind speed in m/s (hover to see current wind gust speed)